Terminal Aerodrome Forecast
Issued by NWS

Home | Current Version | Previous Version | Text Only | Print | Product List | Glossary On
Versions: 1 2 3 4 5 6 7 8 9 10 11 12 13 14 15 16 17
000
FTUS43 KICT 170700 AAA
TAFHUT
TAF AMD
KHUT 170757Z 1708/1806 17008KT P6SM SCT010 BKN025
      TEMPO 1708/1712 6SM BR BKN008
     FM171500 20009KT P6SM SCT040
      TEMPO 1715/1718 BKN025
     FM172300 15007KT P6SM SCT035=

USA.gov is the U.S. government's official web portal to all federal, state and local government web resources and services.